createdAt,value
2022-10-23T00:02:16.816Z,87.35
2022-10-23T00:04:47.314Z,87.39
2022-10-23T00:07:17.776Z,87.45
2022-10-23T00:09:48.288Z,87.52
2022-10-23T00:12:18.663Z,87.56
2022-10-23T00:14:49.044Z,87.69
2022-10-23T00:17:19.429Z,87.73
2022-10-23T00:19:49.795Z,87.68
2022-10-23T00:22:20.187Z,87.90
2022-10-23T00:24:50.561Z,87.71
2022-10-23T00:27:21.187Z,87.53
2022-10-23T00:29:51.544Z,87.47
2022-10-23T00:32:21.975Z,87.56
2022-10-23T00:34:52.418Z,87.56
2022-10-23T00:37:22.965Z,87.54
2022-10-23T00:39:53.491Z,87.50
2022-10-23T00:42:23.959Z,87.37
2022-10-23T00:44:57.433Z,87.33
2022-10-23T00:47:27.886Z,86.79
2022-10-23T00:50:00.229Z,86.42
2022-10-23T00:52:31.635Z,86.52
2022-10-23T00:55:02.795Z,86.37
2022-10-23T00:57:33.226Z,86.27
2022-10-23T01:00:03.925Z,85.76
2022-10-23T01:02:34.366Z,85.48
2022-10-23T01:05:04.923Z,85.62
2022-10-23T01:07:38.392Z,85.41
2022-10-23T01:10:18.225Z,84.90
2022-10-23T01:13:00.703Z,85.04
2022-10-23T01:15:36.777Z,85.34
2022-10-23T01:18:19.167Z,85.31
2022-10-23T01:20:58.378Z,85.47
2022-10-23T01:24:05.803Z,85.41
2022-10-23T01:26:48.075Z,85.25
2022-10-23T01:29:30.618Z,85.37
2022-10-23T01:32:06.784Z,85.36
2022-10-23T01:34:43.383Z,85.40
2022-10-23T01:37:16.979Z,85.10
2022-10-23T01:39:50.784Z,85.27
2022-10-23T01:42:24.341Z,85.15
2022-10-23T01:45:01.135Z,85.24
2022-10-23T01:47:34.871Z,85.19
2022-10-23T01:50:07.136Z,85.15
2022-10-23T01:52:38.512Z,85.37
2022-10-23T01:55:11.817Z,85.11
2022-10-23T01:57:45.330Z,85.03
2022-10-23T02:00:18.338Z,85.39
2022-10-23T02:02:51.369Z,85.61
2022-10-23T02:05:27.759Z,85.70
2022-10-23T02:07:59.270Z,85.72
2022-10-23T02:10:41.837Z,85.82
2022-10-23T02:13:26.948Z,85.58
2022-10-23T02:16:06.088Z,85.61
2022-10-23T02:18:57.217Z,84.75
2022-10-23T02:21:56.218Z,85.21
2022-10-23T02:24:35.457Z,85.07
2022-10-23T02:27:11.440Z,85.02
2022-10-23T02:29:47.947Z,84.86
2022-10-23T02:32:20.876Z,84.96
2022-10-23T02:34:51.729Z,84.75
2022-10-23T02:39:53.785Z,84.98
2022-10-23T02:42:35.793Z,85.12
2022-10-23T02:45:24.521Z,85.24
2022-10-23T02:47:58.015Z,85.11
2022-10-23T02:50:46.732Z,85.17
2022-10-23T02:53:35.252Z,85.32
2022-10-23T02:56:16.973Z,85.62
2022-10-23T02:58:59.246Z,85.42
2022-10-23T03:01:32.863Z,85.88
2022-10-23T03:04:06.157Z,86.17
2022-10-23T03:06:36.993Z,86.03
2022-10-23T03:09:10.151Z,86.37
2022-10-23T03:11:40.557Z,86.47
2022-10-23T03:14:13.406Z,86.48
2022-10-23T03:16:43.855Z,86.76
2022-10-23T03:19:14.300Z,86.74
2022-10-23T03:21:44.815Z,86.81
2022-10-23T03:24:15.374Z,87.01
2022-10-23T03:26:45.697Z,86.92
2022-10-23T03:29:16.062Z,87.07
2022-10-23T03:31:46.445Z,87.36
2022-10-23T03:34:18.313Z,87.24
2022-10-23T03:36:48.873Z,87.44
2022-10-23T03:39:19.339Z,87.29
2022-10-23T03:41:50.115Z,87.48
2022-10-23T03:44:20.501Z,87.58
2022-10-23T03:46:50.899Z,87.60
2022-10-23T03:49:21.353Z,87.49
2022-10-23T03:51:52.913Z,87.41
2022-10-23T03:54:25.038Z,87.48
2022-10-23T03:56:57.572Z,87.44
2022-10-23T03:59:28.628Z,87.52
2022-10-23T04:01:59.035Z,87.51
2022-10-23T04:04:29.455Z,87.51
2022-10-23T04:06:59.836Z,87.68
2022-10-23T04:09:30.499Z,87.59
2022-10-23T04:12:00.825Z,87.78
2022-10-23T04:14:31.560Z,87.94
2022-10-23T04:17:01.959Z,87.93
2022-10-23T04:19:32.329Z,87.97
2022-10-23T04:22:02.738Z,87.96
2022-10-23T04:24:33.227Z,88.05
2022-10-23T04:27:03.793Z,88.19
2022-10-23T04:29:34.272Z,88.18
2022-10-23T04:32:04.652Z,88.34
2022-10-23T04:34:35.173Z,88.50
2022-10-23T04:37:05.608Z,88.64
2022-10-23T04:39:35.859Z,88.69
2022-10-23T04:42:06.262Z,88.68
2022-10-23T04:44:36.643Z,88.81
2022-10-23T04:47:07.041Z,88.71
2022-10-23T04:49:37.439Z,88.68
2022-10-23T04:52:07.857Z,88.74
2022-10-23T04:54:39.386Z,88.67
2022-10-23T04:57:09.787Z,88.61
2022-10-23T04:59:40.075Z,88.69
2022-10-23T05:02:10.511Z,88.68
2022-10-23T05:04:40.985Z,88.68
2022-10-23T05:07:11.390Z,88.42
2022-10-23T05:09:41.784Z,88.56
2022-10-23T05:12:12.137Z,88.65
2022-10-23T05:14:42.516Z,88.76
2022-10-23T05:17:22.102Z,88.72
2022-10-23T05:19:55.371Z,88.57
2022-10-23T05:22:29.024Z,88.39
2022-10-23T05:25:01.369Z,88.43
2022-10-23T05:27:31.881Z,88.56
2022-10-23T05:30:02.597Z,88.49
2022-10-23T05:32:36.669Z,88.40
2022-10-23T05:35:10.944Z,88.37
2022-10-23T05:37:44.687Z,88.55
2022-10-23T05:40:15.131Z,88.51
2022-10-23T05:42:45.655Z,88.51
2022-10-23T05:45:16.460Z,88.39
2022-10-23T05:47:49.071Z,88.49
2022-10-23T05:50:22.749Z,88.59
2022-10-23T05:52:53.084Z,88.58
2022-10-23T05:55:23.479Z,88.62
2022-10-23T05:57:54.035Z,88.57
2022-10-23T06:00:24.365Z,88.52
2022-10-23T06:02:54.843Z,88.56
2022-10-23T06:05:25.224Z,88.46
2022-10-23T06:08:00.433Z,88.58
2022-10-23T06:10:32.523Z,88.66
2022-10-23T06:13:02.949Z,88.85
2022-10-23T06:15:33.456Z,88.88
2022-10-23T06:18:05.132Z,88.76
2022-10-23T06:20:39.881Z,88.84
2022-10-23T06:23:10.213Z,88.89
2022-10-23T06:25:40.640Z,88.89
2022-10-23T06:28:11.036Z,88.76
2022-10-23T06:30:41.451Z,88.71
2022-10-23T06:33:11.816Z,88.71
2022-10-23T06:35:42.142Z,88.81
2022-10-23T06:38:12.610Z,88.89
2022-10-23T06:40:42.961Z,88.78
2022-10-23T06:43:13.353Z,88.70
2022-10-23T06:45:43.790Z,88.62
2022-10-23T06:48:14.491Z,88.43
2022-10-23T06:50:44.933Z,88.20
2022-10-23T06:53:15.439Z,88.13
2022-10-23T06:55:46.640Z,87.98
2022-10-23T06:58:17.986Z,87.84
2022-10-23T07:00:48.471Z,87.69
2022-10-23T07:03:18.905Z,87.79
2022-10-23T07:05:49.319Z,87.79
2022-10-23T07:08:19.770Z,87.84
2022-10-23T07:10:50.222Z,87.96
2022-10-23T07:13:20.556Z,87.92
2022-10-23T07:15:51.633Z,88.10
2022-10-23T07:18:22.064Z,88.02
2022-10-23T07:20:55.560Z,87.86
2022-10-23T07:23:26.032Z,87.81
2022-10-23T07:25:56.337Z,87.47
2022-10-23T07:28:26.621Z,87.37
2022-10-23T07:31:00.544Z,87.19
2022-10-23T07:33:30.862Z,86.91
2022-10-23T07:36:01.457Z,86.87
2022-10-23T07:38:31.824Z,86.72
2022-10-23T07:41:02.639Z,86.60
2022-10-23T07:43:34.807Z,86.45
2022-10-23T07:46:05.261Z,86.40
2022-10-23T07:48:36.497Z,86.27
2022-10-23T07:51:14.606Z,86.09
2022-10-23T07:53:45.246Z,85.78
2022-10-23T07:56:18.758Z,85.84
2022-10-23T07:58:49.378Z,85.66
2022-10-23T08:01:22.801Z,85.44
2022-10-23T08:03:53.832Z,85.32
2022-10-23T08:06:24.345Z,85.37
2022-10-23T08:08:54.779Z,85.46
2022-10-23T08:11:28.030Z,85.41
2022-10-23T08:13:59.186Z,85.56
2022-10-23T08:16:29.556Z,85.52
2022-10-23T08:19:00.182Z,85.52
2022-10-23T08:21:31.004Z,85.46
2022-10-23T08:24:02.186Z,85.58
2022-10-23T08:26:32.731Z,85.53
2022-10-23T08:29:03.161Z,85.79
2022-10-23T08:31:33.563Z,85.42
2022-10-23T08:34:04.064Z,85.20
2022-10-23T08:36:36.363Z,84.84
2022-10-23T08:39:07.508Z,84.97
2022-10-23T08:41:43.370Z,85.02
2022-10-23T08:44:26.300Z,84.50
2022-10-23T08:47:21.037Z,84.40
2022-10-23T08:50:03.344Z,84.08
2022-10-23T08:52:42.863Z,83.56
2022-10-23T08:55:16.778Z,83.31
2022-10-23T08:57:50.602Z,82.82
2022-10-23T09:00:24.085Z,82.40
2022-10-23T09:02:56.214Z,81.99
2022-10-23T09:05:32.951Z,81.82
2022-10-23T09:08:06.395Z,79.85
2022-10-23T09:10:51.972Z,75.65
2022-10-23T09:13:31.115Z,71.98
2022-10-23T09:16:16.820Z,68.48
2022-10-23T09:18:49.330Z,65.77
2022-10-23T09:21:20.928Z,64.52
2022-10-23T09:23:51.305Z,63.82
2022-10-23T09:26:22.467Z,63.43
2022-10-23T09:28:56.333Z,65.35
2022-10-23T09:31:26.716Z,66.59
2022-10-23T09:34:02.334Z,64.61
2022-10-23T09:36:33.492Z,61.19
2022-10-23T09:39:03.880Z,58.46
2022-10-23T09:41:39.858Z,58.47
2022-10-23T09:44:20.135Z,58.81
2022-10-23T09:46:56.216Z,58.29
2022-10-23T09:49:29.917Z,59.40
2022-10-23T09:52:12.409Z,62.70
2022-10-23T09:55:01.020Z,60.79
2022-10-23T09:57:38.201Z,59.52
2022-10-23T10:00:17.866Z,58.79
2022-10-23T10:03:02.502Z,61.99
2022-10-23T10:05:38.230Z,64.74
2022-10-23T10:08:11.609Z,65.67
2022-10-23T10:10:53.911Z,66.39
2022-10-23T10:13:55.789Z,65.03
2022-10-23T10:16:35.209Z,60.76
2022-10-23T10:19:23.914Z,56.77
2022-10-23T10:22:13.809Z,59.25
2022-10-23T10:25:05.528Z,55.29
2022-10-23T10:27:42.044Z,59.15
2022-10-23T10:30:18.505Z,60.50
2022-10-23T10:33:00.720Z,62.02
2022-10-23T10:35:52.978Z,62.39
2022-10-23T10:38:46.120Z,63.85
2022-10-23T10:41:40.235Z,61.71
2022-10-23T10:44:34.904Z,62.04
2022-10-23T10:47:32.559Z,59.97
2022-10-23T10:50:20.616Z,60.52
2022-10-23T10:53:14.697Z,60.69
2022-10-23T10:55:53.749Z,61.74
2022-10-23T10:58:28.137Z,61.13
2022-10-23T11:01:01.983Z,58.94
2022-10-23T11:03:51.836Z,60.87
2022-10-23T11:06:25.270Z,64.96
2022-10-23T11:09:03.993Z,65.37
2022-10-23T11:11:41.180Z,65.05
2022-10-23T11:14:24.074Z,66.03
2022-10-23T11:17:27.782Z,66.09
2022-10-23T11:20:19.352Z,64.69
2022-10-23T11:23:10.467Z,63.11
2022-10-23T11:26:03.368Z,61.76
2022-10-23T11:29:00.982Z,60.66
2022-10-23T11:32:00.262Z,59.11
2022-10-23T11:35:05.684Z,59.99
2022-10-23T11:37:36.059Z,59.39
2022-10-23T11:40:12.362Z,57.71
2022-10-23T11:42:46.144Z,57.67
2022-10-23T11:45:38.350Z,57.32
2022-10-23T11:48:26.761Z,58.77
2022-10-23T11:50:59.090Z,60.00
2022-10-23T11:53:34.954Z,60.37
2022-10-23T11:56:08.341Z,60.50
2022-10-23T11:58:54.039Z,62.28
2022-10-23T12:01:36.634Z,62.90
2022-10-23T12:04:19.480Z,62.75
2022-10-23T12:06:55.839Z,63.44
2022-10-23T12:09:29.378Z,63.13
2022-10-23T12:15:15.844Z,62.57
2022-10-23T12:17:48.071Z,63.16
2022-10-23T12:20:30.478Z,63.42
2022-10-23T12:23:06.923Z,63.78
2022-10-23T12:25:55.508Z,64.77
2022-10-23T12:28:41.168Z,65.02
2022-10-23T12:31:29.878Z,65.43
2022-10-23T12:34:20.060Z,65.84
2022-10-23T12:37:24.841Z,66.00
2022-10-23T12:39:57.065Z,65.85
2022-10-23T12:42:29.311Z,66.70
2022-10-23T12:45:26.658Z,66.54
2022-10-23T12:47:57.078Z,66.54
2022-10-23T12:50:30.239Z,66.60
2022-10-23T12:53:07.524Z,66.91
2022-10-23T12:58:34.964Z,67.48
2022-10-23T13:01:07.732Z,67.44
2022-10-23T13:03:40.150Z,67.76
2022-10-23T13:06:12.413Z,67.97
2022-10-23T13:08:45.887Z,67.89
2022-10-23T13:11:19.566Z,68.33
2022-10-23T13:13:50.409Z,68.86
2022-10-23T13:16:23.551Z,68.75
2022-10-23T13:18:54.447Z,69.09
2022-10-23T13:21:28.645Z,69.34
2022-10-23T13:23:59.159Z,69.25
2022-10-23T13:26:44.452Z,69.13
2022-10-23T13:29:33.334Z,69.22
2022-10-23T13:32:13.774Z,69.04
2022-10-23T13:34:53.746Z,68.81
2022-10-23T13:37:25.131Z,68.31
2022-10-23T13:40:08.812Z,68.24
2022-10-23T13:42:45.013Z,68.47
2022-10-23T13:45:18.936Z,68.85
2022-10-23T13:47:49.524Z,69.16
2022-10-23T13:50:20.761Z,69.74
2022-10-23T13:52:51.145Z,70.15
2022-10-23T13:55:24.682Z,70.54
2022-10-23T13:57:56.299Z,70.46
2022-10-23T14:00:26.652Z,70.65
2022-10-23T14:02:56.961Z,70.83
2022-10-23T14:05:27.361Z,70.86
2022-10-23T14:07:58.042Z,70.79
2022-10-23T14:10:28.466Z,71.05
2022-10-23T14:12:58.953Z,71.25
2022-10-23T14:15:29.375Z,71.48
2022-10-23T14:18:01.531Z,71.95
2022-10-23T14:20:31.957Z,72.00
2022-10-23T14:23:02.422Z,72.15
2022-10-23T14:25:32.814Z,72.36
2022-10-23T14:28:03.265Z,72.29
2022-10-23T14:30:33.927Z,72.60
2022-10-23T14:33:04.657Z,72.58
2022-10-23T14:35:35.449Z,72.64
2022-10-23T14:38:05.816Z,72.91
2022-10-23T14:40:38.503Z,72.67
2022-10-23T14:43:08.822Z,72.59
2022-10-23T14:45:39.231Z,72.74
2022-10-23T14:48:09.658Z,73.01
2022-10-23T14:50:47.303Z,72.98
2022-10-23T14:53:17.891Z,73.08
2022-10-23T14:55:48.180Z,73.32
2022-10-23T14:58:18.479Z,73.60
2022-10-23T15:00:51.952Z,73.72
2022-10-23T15:03:22.398Z,74.00
2022-10-23T15:05:53.046Z,74.26
2022-10-23T15:08:24.300Z,74.33
2022-10-23T15:10:54.674Z,74.53
2022-10-23T15:13:25.125Z,74.72
2022-10-23T15:16:10.807Z,74.37
2022-10-23T15:18:41.333Z,74.70
2022-10-23T15:21:11.812Z,74.95
2022-10-23T15:23:44.956Z,75.19
2022-10-23T15:26:22.166Z,75.18
2022-10-23T15:28:58.571Z,75.54
2022-10-23T15:31:38.007Z,75.84
2022-10-23T15:34:13.784Z,75.90
2022-10-23T15:36:45.016Z,76.29
2022-10-23T15:39:17.936Z,76.35
2022-10-23T15:41:49.602Z,76.66
2022-10-23T15:44:21.143Z,76.88
2022-10-23T15:46:52.497Z,77.15
2022-10-23T15:49:22.799Z,77.43
2022-10-23T15:51:54.307Z,77.70
2022-10-23T15:54:28.103Z,77.63
2022-10-23T15:56:57.325Z,77.83
2022-10-23T15:59:28.707Z,77.93
2022-10-23T16:02:01.810Z,77.97
2022-10-23T16:04:33.145Z,77.72
2022-10-23T16:07:15.020Z,77.67
2022-10-23T16:09:45.811Z,77.26
2022-10-23T16:12:17.196Z,77.35
2022-10-23T16:14:47.709Z,77.47
2022-10-23T16:17:19.375Z,77.69
2022-10-23T16:19:49.770Z,77.91
2022-10-23T16:22:20.239Z,78.07
2022-10-23T16:24:50.555Z,78.19
2022-10-23T16:27:21.000Z,78.34
2022-10-23T16:29:51.475Z,78.41
2022-10-23T16:32:21.996Z,78.57
2022-10-23T16:34:52.464Z,78.87
2022-10-23T16:37:22.889Z,78.74
2022-10-23T16:39:53.298Z,78.89
2022-10-23T16:42:23.916Z,79.10
2022-10-23T16:44:56.660Z,79.21
2022-10-23T16:47:27.131Z,79.58
2022-10-23T16:49:57.703Z,79.60
2022-10-23T16:52:28.972Z,80.31
2022-10-23T16:54:59.501Z,79.87
2022-10-23T16:57:29.813Z,80.03
2022-10-23T17:00:00.299Z,79.80
2022-10-23T17:02:30.765Z,79.89
2022-10-23T17:05:01.436Z,79.61
2022-10-23T17:07:34.893Z,79.40
2022-10-23T17:10:05.829Z,79.54
2022-10-23T17:12:37.224Z,79.47
2022-10-23T17:15:08.780Z,79.44
2022-10-23T17:17:39.264Z,79.56
2022-10-23T17:20:10.632Z,79.82
2022-10-23T17:22:41.029Z,79.47
2022-10-23T17:25:12.656Z,79.39
2022-10-23T17:27:43.646Z,79.55
2022-10-23T17:30:14.494Z,79.42
2022-10-23T17:32:45.198Z,79.32
2022-10-23T17:35:16.020Z,79.35
2022-10-23T17:37:46.660Z,79.74
2022-10-23T17:40:24.752Z,79.64
2022-10-23T17:42:52.479Z,79.68
2022-10-23T17:45:23.028Z,79.65
2022-10-23T17:47:53.885Z,79.78
2022-10-23T17:50:24.447Z,79.50
2022-10-23T17:52:55.061Z,79.27
2022-10-23T17:55:27.083Z,79.27
2022-10-23T17:57:59.217Z,78.88
2022-10-23T18:00:29.783Z,78.84
2022-10-23T18:03:00.130Z,78.57
2022-10-23T18:05:33.357Z,78.48
2022-10-23T18:08:04.053Z,78.26
2022-10-23T18:10:36.916Z,78.39
2022-10-23T18:13:07.654Z,78.10
2022-10-23T18:15:39.656Z,78.21
2022-10-23T18:18:11.731Z,78.25
2022-10-23T18:20:42.309Z,78.46
2022-10-23T18:23:14.307Z,78.52
2022-10-23T18:25:46.019Z,78.60
2022-10-23T18:28:16.401Z,78.46
2022-10-23T18:30:48.132Z,78.54
2022-10-23T18:33:20.082Z,78.69
2022-10-23T18:35:50.870Z,78.79
2022-10-23T18:38:21.528Z,78.86
2022-10-23T18:40:57.268Z,78.79
2022-10-23T18:43:43.172Z,78.78
2022-10-23T18:46:02.366Z,78.89
2022-10-23T18:48:36.277Z,78.87
2022-10-23T18:51:11.149Z,78.74
2022-10-23T18:53:40.681Z,78.72
2022-10-23T18:56:11.347Z,78.78
2022-10-23T18:58:42.157Z,78.58
2022-10-23T19:01:14.535Z,78.56
2022-10-23T19:03:45.489Z,78.47
2022-10-23T19:06:17.053Z,78.69
2022-10-23T19:08:48.452Z,78.62
2022-10-23T19:11:21.259Z,78.54
2022-10-23T19:13:52.095Z,78.49
2022-10-23T19:16:42.694Z,78.45
2022-10-23T19:19:22.015Z,78.34
2022-10-23T19:21:54.009Z,78.48
2022-10-23T19:24:29.462Z,78.44
2022-10-23T19:27:01.912Z,78.32
2022-10-23T19:29:33.307Z,78.27
2022-10-23T19:32:04.260Z,78.02
2022-10-23T19:34:35.268Z,77.99
2022-10-23T19:37:05.932Z,77.96
2022-10-23T19:39:36.725Z,77.95
2022-10-23T19:42:08.743Z,78.20
2022-10-23T19:44:39.367Z,78.32
2022-10-23T19:47:09.879Z,78.22
2022-10-23T19:49:40.661Z,78.16
2022-10-23T19:52:11.284Z,78.36
2022-10-23T19:54:41.901Z,77.98
2022-10-23T19:57:13.128Z,78.28
2022-10-23T19:59:43.956Z,78.21
2022-10-23T20:02:15.120Z,78.14
2022-10-23T20:04:46.057Z,78.19
2022-10-23T20:07:16.718Z,77.82
2022-10-23T20:09:47.329Z,78.02
2022-10-23T20:12:17.798Z,78.16
2022-10-23T20:14:48.270Z,78.13
2022-10-23T20:17:18.766Z,78.15
2022-10-23T20:19:49.980Z,78.15
2022-10-23T20:22:21.254Z,78.12
2022-10-23T20:24:51.739Z,77.84
2022-10-23T20:27:22.268Z,78.02
2022-10-23T20:29:52.841Z,77.59
2022-10-23T20:32:23.469Z,78.23
2022-10-23T20:34:54.125Z,78.23
2022-10-23T20:37:24.602Z,78.03
2022-10-23T20:39:56.443Z,78.07
2022-10-23T20:42:26.924Z,78.35
2022-10-23T20:44:57.441Z,78.11
2022-10-23T20:47:27.803Z,78.50
2022-10-23T20:49:58.265Z,78.77
2022-10-23T20:52:30.110Z,78.66
2022-10-23T20:55:00.800Z,78.97
2022-10-23T20:57:31.478Z,78.80
2022-10-23T21:00:03.132Z,78.92
2022-10-23T21:02:33.835Z,78.97
2022-10-23T21:05:04.617Z,78.99
2022-10-23T21:07:35.165Z,79.34
2022-10-23T21:10:06.719Z,79.42
2022-10-23T21:12:38.455Z,79.28
2022-10-23T21:15:10.214Z,79.73
2022-10-23T21:17:41.231Z,79.82
2022-10-23T21:20:12.136Z,79.77
2022-10-23T21:22:43.077Z,80.01
2022-10-23T21:25:15.441Z,80.10
2022-10-23T21:27:46.633Z,80.19
2022-10-23T21:30:17.416Z,80.32
2022-10-23T21:32:47.845Z,80.29
2022-10-23T21:35:18.591Z,80.11
2022-10-23T21:37:49.065Z,79.97
2022-10-23T21:40:19.517Z,80.02
2022-10-23T21:42:50.054Z,79.92
2022-10-23T21:45:21.066Z,80.11
2022-10-23T21:47:51.443Z,79.99
2022-10-23T21:50:21.756Z,79.95
2022-10-23T21:52:53.233Z,79.68
2022-10-23T21:55:29.943Z,79.93
2022-10-23T21:58:00.332Z,80.00
2022-10-23T22:00:30.719Z,80.01
2022-10-23T22:03:01.124Z,79.98
2022-10-23T22:05:31.544Z,79.91
2022-10-23T22:08:01.914Z,79.57
2022-10-23T22:10:32.244Z,79.59
2022-10-23T22:13:02.556Z,79.54
2022-10-23T22:15:33.003Z,79.42
2022-10-23T22:18:03.563Z,79.49
2022-10-23T22:20:33.964Z,79.57
2022-10-23T22:23:04.359Z,79.59
2022-10-23T22:25:34.784Z,80.36
2022-10-23T22:28:05.227Z,80.85
2022-10-23T22:30:37.550Z,81.18
2022-10-23T22:33:07.949Z,81.65
2022-10-23T22:35:38.332Z,81.69
2022-10-23T22:38:08.715Z,82.25
2022-10-23T22:40:43.064Z,82.84
2022-10-23T22:43:11.081Z,83.22
2022-10-23T22:45:41.474Z,83.38
2022-10-23T22:48:11.980Z,83.92
2022-10-23T22:50:42.385Z,84.98
2022-10-23T22:53:12.794Z,85.75
2022-10-23T22:55:44.014Z,86.32
2022-10-23T22:58:14.466Z,87.01
2022-10-23T23:00:44.904Z,87.21
2022-10-23T23:03:15.461Z,87.83
2022-10-23T23:05:48.601Z,88.09
2022-10-23T23:08:18.960Z,88.63
2022-10-23T23:10:59.151Z,88.93
2022-10-23T23:13:29.868Z,89.34
2022-10-23T23:16:00.857Z,89.56
2022-10-23T23:18:31.688Z,89.76
2022-10-23T23:21:06.703Z,89.92
2022-10-23T23:23:37.778Z,90.12
2022-10-23T23:26:09.238Z,90.28
2022-10-23T23:28:39.628Z,90.49
2022-10-23T23:31:15.030Z,90.59
2022-10-23T23:33:45.942Z,90.65
2022-10-23T23:36:19.339Z,90.69
2022-10-23T23:38:50.286Z,90.73
2022-10-23T23:41:22.241Z,90.79
2022-10-23T23:43:54.938Z,90.86
2022-10-23T23:46:27.002Z,90.93
2022-10-23T23:48:57.310Z,91.01
2022-10-23T23:51:27.934Z,91.04
2022-10-23T23:53:58.266Z,91.06
2022-10-23T23:56:28.745Z,91.09
2022-10-23T23:58:59.347Z,91.11
